Time;durP1;ratioP1;P1;durP2;ratioP2;P2;SDS_P1;SDS_P2;PMS_P1;PMS_P2;Temp;Humidity;BMP_temperature;BMP_pressure;BME280_temperature;BME280_humidity;BME280_pressure;Samples;Min_cycle;Max_cycle;Signal;HPM_P1;HPM_P2
2024/01/05 00:03:58;;;;;;;1999.90;999.90;;;;;;;7.84;100.00;99928.91;10338272;28;20078;-73
2024/01/05 00:09:02;;;;;;;1999.90;999.90;;;;;;;7.55;100.00;99926.25;10338300;28;20057;-73
2024/01/05 00:14:04;;;;;;;1999.90;999.90;;;;;;;7.30;100.00;99929.44;10336844;28;20046;-73
2024/01/05 00:19:06;;;;;;;1999.90;999.90;;;;;;;7.37;100.00;99926.38;10337687;28;20511;-73
2024/01/05 00:24:09;;;;;;;1999.90;999.90;;;;;;;7.52;100.00;99911.63;10337540;28;20069;-73
2024/01/05 00:29:11;;;;;;;1999.90;999.90;;;;;;;7.51;100.00;99907.34;10352933;28;20054;-73
2024/01/05 00:34:14;;;;;;;1999.90;999.90;;;;;;;7.34;100.00;99892.69;10351123;28;20065;-73
2024/01/05 00:39:17;;;;;;;1999.90;999.90;;;;;;;7.48;100.00;99886.72;10337266;28;20050;-73
2024/01/05 00:44:19;;;;;;;1999.90;999.90;;;;;;;7.49;100.00;99872.75;10336705;28;20405;-73
2024/01/05 00:49:22;;;;;;;1999.90;999.90;;;;;;;7.38;100.00;99862.97;10336560;28;20496;-73
2024/01/05 00:54:25;;;;;;;1999.90;999.90;;;;;;;7.33;100.00;99865.00;10351531;28;20061;-73
2024/01/05 00:59:28;;;;;;;1999.90;999.90;;;;;;;7.32;100.00;99860.72;10336149;28;20129;-73
2024/01/05 01:04:30;;;;;;;1999.90;999.90;;;;;;;7.20;100.00;99854.47;10335070;28;20064;-73
2024/01/05 01:09:33;;;;;;;1999.90;999.90;;;;;;;7.39;100.00;99838.59;10334985;28;20054;-73
2024/01/05 01:14:35;;;;;;;1999.90;999.90;;;;;;;7.08;100.00;99834.38;10335547;28;20046;-73
2024/01/05 01:19:37;;;;;;;1999.90;999.90;;;;;;;7.23;100.00;99838.66;10335511;28;20050;-73
2024/01/05 01:24:40;;;;;;;1999.90;999.90;;;;;;;7.19;100.00;99831.13;10334072;28;20469;-73
2024/01/05 01:29:42;;;;;;;1999.90;999.90;;;;;;;7.29;100.00;99834.84;10333945;28;20050;-73
2024/01/05 01:34:44;;;;;;;1999.90;999.90;;;;;;;7.31;100.00;99835.59;10334913;28;20401;-73
2024/01/05 01:39:47;;;;;;;1999.90;999.90;;;;;;;7.39;100.00;99838.59;10334979;28;20058;-73
2024/01/05 01:44:49;;;;;;;1999.90;999.90;;;;;;;7.54;100.00;99826.41;10334426;28;20046;-72
2024/01/05 01:49:52;;;;;;;1999.90;999.90;;;;;;;7.53;100.00;99827.38;10334459;28;20074;-72
2024/01/05 01:54:54;;;;;;;1999.90;999.90;;;;;;;7.46;100.00;99823.44;10349536;28;20062;-73
2024/01/05 01:59:57;;;;;;;1999.90;999.90;;;;;;;7.55;100.00;99809.03;10349109;28;20520;-73
2024/01/05 02:05:00;;;;;;;1999.90;999.90;;;;;;;7.57;100.00;99808.00;10349077;28;20473;-73
2024/01/05 02:10:03;;;;;;;1999.90;999.90;;;;;;;7.68;100.00;99799.53;10334166;28;20120;-73
2024/01/05 02:15:06;;;;;;;1999.90;999.90;;;;;;;7.62;100.00;99782.50;10333586;28;20441;-72
2024/01/05 02:20:08;;;;;;;1999.90;999.90;;;;;;;7.69;100.00;99779.53;10333607;28;20050;-73
2024/01/05 02:25:11;;;;;;;1999.90;999.90;;;;;;;7.59;100.00;99767.06;10349201;28;20409;-72
2024/01/05 02:30:20;;;;;;;1999.90;999.90;;;;;;;7.71;100.00;99752.44;10348687;28;20082;-72
2024/01/05 02:35:22;;;;;;;1999.90;999.90;;;;;;;7.92;100.00;99745.06;10348484;28;20046;-72
2024/01/05 02:40:25;;;;;;;1999.90;999.90;;;;;;;7.82;100.00;99739.59;10333542;28;20048;-72
2024/01/05 02:45:27;;;;;;;1999.90;999.90;;;;;;;7.97;100.00;99735.19;10333175;28;20417;-72
2024/01/05 02:50:30;;;;;;;1999.90;999.90;;;;;;;7.86;100.00;99727.19;10333094;28;20050;-72
2024/01/05 02:55:32;;;;;;;1999.90;999.90;;;;;;;7.72;100.00;99709.84;10334954;28;20050;-72
2024/01/05 03:00:35;;;;;;;1999.90;999.90;;;;;;;7.86;100.00;99714.16;10355829;28;20049;-72
2024/01/05 03:05:39;;;;;;;1999.90;999.90;;;;;;;7.63;100.00;99716.47;10339578;28;20526;-73
2024/01/05 03:10:41;;;;;;;1999.90;999.90;;;;;;;7.38;100.00;99709.31;10355585;28;20089;-73
2024/01/05 03:15:43;;;;;;;1999.90;999.90;;;;;;;7.68;100.00;99700.50;10340402;28;20056;-73
2024/01/05 03:20:46;;;;;;;1999.90;999.90;;;;;;;7.71;100.00;99694.28;10339931;28;20503;-72
2024/01/05 03:25:50;;;;;;;1999.90;999.90;;;;;;;7.84;100.00;99684.75;10339843;28;20055;-72
2024/01/05 03:30:52;;;;;;;1999.90;999.90;;;;;;;7.82;100.00;99673.63;10339664;28;20483;-72
2024/01/05 03:35:55;;;;;;;1999.90;999.90;;;;;;;7.69;100.00;99670.94;10339919;28;20053;-72
2024/01/05 03:40:57;;;;;;;1999.90;999.90;;;;;;;7.82;100.00;99656.19;10339357;28;20054;-72
2024/01/05 03:45:59;;;;;;;1999.90;999.90;;;;;;;7.75;100.00;99647.09;10354642;28;20050;-72
2024/01/05 03:51:03;;;;;;;1999.90;999.90;;;;;;;8.00;100.00;99637.69;10338830;28;20050;-72
2024/01/05 03:56:06;;;;;;;1999.90;999.90;;;;;;;8.07;100.00;99622.47;10353684;28;20448;-72
2024/01/05 04:01:08;;;;;;;1999.90;999.90;;;;;;;8.10;100.00;99617.94;10353529;28;20481;-72
2024/01/05 04:06:19;;;;;;;1999.90;999.90;;;;;;;7.93;100.00;99611.19;10353122;28;20517;-72
2024/01/05 04:11:21;;;;;;;1999.90;999.90;;;;;;;7.86;100.00;99604.72;10427445;23;20057;-61
2024/01/05 04:16:24;;;;;;;1999.90;999.90;;;;;;;7.85;100.00;99600.44;10419829;28;20466;-61
2024/01/05 04:21:26;;;;;;;1999.90;999.90;;;;;;;7.82;100.00;99582.41;10419290;28;20124;-61
2024/01/05 04:26:29;;;;;;;1999.90;999.90;;;;;;;8.00;100.00;99582.94;10418922;28;20045;-61
2024/01/05 04:31:31;;;;;;;1999.90;999.90;;;;;;;8.00;100.00;99580.34;10418996;28;20124;-62
2024/01/05 04:36:33;;;;;;;1999.90;999.90;;;;;;;7.89;100.00;99580.25;10418529;28;20057;-62
2024/01/05 04:41:37;;;;;;;1999.90;999.90;;;;;;;7.98;100.00;99570.03;10418678;28;20124;-61
2024/01/05 04:46:39;;;;;;;1999.90;999.90;;;;;;;7.87;100.00;99569.91;10418232;28;20041;-62
2024/01/05 04:51:41;;;;;;;1999.90;999.90;;;;;;;7.84;100.00;99557.06;10418276;28;20135;-61
2024/01/05 04:56:45;;;;;;;1999.90;999.90;;;;;;;7.74;100.00;99545.59;10416721;28;20056;-62
2024/01/05 05:01:48;;;;;;;1999.90;999.90;;;;;;;7.80;100.00;99540.81;10417560;28;20067;-61
2024/01/05 05:06:50;;;;;;;1999.90;999.90;;;;;;;7.87;100.00;99535.19;10416281;28;20049;-62
2024/01/05 05:11:53;;;;;;;1999.90;999.90;;;;;;;7.77;100.00;99535.78;10417351;28;20060;-62
2024/01/05 05:16:55;;;;;;;1999.90;999.90;;;;;;;7.66;100.00;99530.44;10415403;28;20095;-62
2024/01/05 05:21:57;;;;;;;1999.90;999.90;;;;;;;7.59;100.00;99516.16;10416973;28;20054;-62
2024/01/05 05:27:00;;;;;;;1999.90;999.90;;;;;;;7.91;100.00;99505.38;10415461;28;20132;-61
2024/01/05 05:32:02;;;;;;;1999.90;999.90;;;;;;;7.61;100.00;99496.88;10417408;28;20103;-62
2024/01/05 05:37:05;;;;;;;1999.90;999.90;;;;;;;7.65;100.00;99489.72;10415609;28;20053;-61
2024/01/05 05:42:07;;;;;;;1999.90;999.90;;;;;;;7.63;100.00;99495.03;10416248;28;20053;-61
2024/01/05 05:47:10;;;;;;;1999.90;999.90;;;;;;;7.66;100.00;99486.16;10416047;28;20124;-62
2024/01/05 05:52:12;;;;;;;1999.90;999.90;;;;;;;7.56;100.00;99488.53;10416041;28;20050;-62
2024/01/05 05:57:14;;;;;;;1999.90;999.90;;;;;;;7.80;100.00;99473.06;10415732;28;20124;-61
2024/01/05 06:02:17;;;;;;;1999.90;999.90;;;;;;;7.80;100.00;99474.81;10415520;28;20061;-61
2024/01/05 06:07:19;;;;;;;1999.90;999.90;;;;;;;8.04;100.00;99484.56;10415485;28;20049;-61
2024/01/05 06:12:21;;;;;;;1999.90;999.90;;;;;;;8.01;100.00;99475.16;10397865;28;20131;-62
2024/01/05 06:17:24;;;;;;;1999.90;999.90;;;;;;;7.83;100.00;99477.22;10415358;28;20051;-61
2024/01/05 06:22:26;;;;;;;1999.90;999.90;;;;;;;7.86;100.00;99482.22;10415174;28;20045;-61
2024/01/05 06:27:29;;;;;;;1999.90;999.90;;;;;;;7.92;100.00;99481.84;10415502;28;20435;-64
2024/01/05 06:32:40;;;;;;;1999.90;999.90;;;;;;;7.75;100.00;99472.53;10421434;28;20111;-64
2024/01/05 06:37:42;;;;;;;1999.90;999.90;;;;;;;7.87;100.00;99473.50;10421980;28;20041;-64
2024/01/05 06:42:45;;;;;;;1999.90;999.90;;;;;;;7.60;100.00;99471.78;10422066;28;20053;-62
2024/01/05 06:47:47;;;;;;;1999.90;999.90;;;;;;;7.87;100.00;99481.31;10421747;28;20124;-62
2024/01/05 06:52:50;;;;;;;1999.90;999.90;;;;;;;7.70;100.00;99474.63;10422849;28;20087;-62
2024/01/05 06:57:53;;;;;;;1999.90;999.90;;;;;;;7.81;100.00;99468.69;10421867;28;20128;-62
2024/01/05 07:02:55;;;;;;;1999.90;999.90;;;;;;;7.91;100.00;99471.50;10422753;28;20049;-61
2024/01/05 07:07:58;;;;;;;1999.90;999.90;;;;;;;7.72;100.00;99471.91;10422648;28;20136;-62
2024/01/05 07:13:00;;;;;;;1999.90;999.90;;;;;;;7.66;100.00;99474.91;10421813;28;20473;-63
2024/01/05 07:18:05;;;;;;;1999.90;999.90;;;;;;;7.57;100.00;99471.16;10421743;28;20050;-65
2024/01/05 07:23:08;;;;;;;1999.90;999.90;;;;;;;7.54;100.00;99464.38;10404871;28;20397;-62
2024/01/05 07:28:11;;;;;;;1999.90;999.90;;;;;;;7.36;100.00;99469.03;10421259;28;20599;-62
2024/01/05 07:33:13;;;;;;;1999.90;999.90;;;;;;;7.76;100.00;99476.78;10421192;28;20128;-66
2024/01/05 07:38:15;;;;;;;1999.90;999.90;;;;;;;7.63;100.00;99478.53;10420777;28;20419;-62
2024/01/05 07:43:18;;;;;;;1999.90;999.90;;;;;;;7.66;100.00;99485.34;10420456;28;20388;-61
2024/01/05 07:48:23;;;;;;;1999.90;999.90;;;;;;;7.52;100.00;99465.41;10420488;28;20103;-61
2024/01/05 07:53:26;;;;;;;1999.90;999.90;;;;;;;7.59;100.00;99464.06;10420355;28;20045;-61
2024/01/05 07:58:28;;;;;;;1999.90;999.90;;;;;;;7.40;100.00;99465.28;10419982;28;20052;-61
2024/01/05 08:03:31;;;;;;;1999.90;999.90;;;;;;;7.44;100.00;99464.13;10419897;28;20115;-61
2024/01/05 08:08:33;;;;;;;1999.90;999.90;;;;;;;7.50;100.00;99465.50;10419438;28;20053;-62
2024/01/05 08:13:36;;;;;;;1999.90;999.90;;;;;;;7.35;100.00;99461.31;10420004;28;20060;-61
2024/01/05 08:18:39;;;;;;;1999.90;999.90;;;;;;;7.52;100.00;99447.19;10419483;28;20046;-62
2024/01/05 08:23:41;;;;;;;1999.90;999.90;;;;;;;7.50;100.00;99447.28;10418932;28;20053;-61
2024/01/05 08:28:44;;;;;;;1999.90;999.90;;;;;;;7.45;100.00;99451.97;10419283;28;20049;-61
2024/01/05 08:33:46;;;;;;;1999.90;999.90;;;;;;;7.34;100.00;99446.63;10417574;28;20408;-61
2024/01/05 08:38:49;;;;;;;1999.90;999.90;;;;;;;7.39;100.00;99437.56;10417315;28;20042;-64
2024/01/05 08:43:51;;;;;;;1999.90;999.90;;;;;;;7.28;100.00;99442.66;10418504;28;20055;-62
2024/01/05 08:48:54;;;;;;;1999.90;999.90;;;;;;;7.13;100.00;99454.91;10418181;28;20049;-61
2024/01/05 08:53:58;;;;;;;1999.90;999.90;;;;;;;7.22;100.00;99458.66;10417093;28;20049;-61
2024/01/05 08:59:01;;;;;;;1999.90;999.90;;;;;;;7.07;100.00;99440.50;10417766;28;20053;-64
2024/01/05 09:04:05;;;;;;;1999.90;999.90;;;;;;;7.02;100.00;99449.53;10417735;28;20056;-63
2024/01/05 09:09:10;;;;;;;1999.90;999.90;;;;;;;7.16;100.00;99452.09;10417024;28;20053;-64
2024/01/05 09:14:12;;;;;;;1999.90;999.90;;;;;;;7.18;100.00;99446.78;10416977;28;20164;-64
2024/01/05 09:19:15;;;;;;;1999.90;999.90;;;;;;;7.21;100.00;99447.44;10416998;28;20072;-64
2024/01/05 09:24:17;;;;;;;1999.90;999.90;;;;;;;7.07;100.00;99473.50;10416906;28;20132;-61
2024/01/05 09:29:20;;;;;;;1999.90;999.90;;;;;;;7.11;100.00;99469.78;10416987;28;20477;-61
2024/01/05 09:34:22;;;;;;;1999.90;999.90;;;;;;;6.97;100.00;99482.81;10416412;28;20128;-61
2024/01/05 09:39:25;;;;;;;1999.90;999.90;;;;;;;6.70;100.00;99497.47;10416281;28;20045;-61
2024/01/05 09:44:27;;;;;;;1999.90;999.90;;;;;;;6.56;100.00;99502.69;10416779;28;20049;-61
2024/01/05 09:49:34;;;;;;;1999.90;999.90;;;;;;;6.58;100.00;99493.03;10414797;28;20052;-61
2024/01/05 09:54:37;;;;;;;1999.90;999.90;;;;;;;6.54;100.00;99516.69;10414829;28;20132;-61
2024/01/05 09:59:40;;;;;;;1999.90;999.90;;;;;;;6.61;100.00;99516.25;10414411;28;20056;-62
2024/01/05 10:04:43;;;;;;;1999.90;999.90;;;;;;;6.93;100.00;99510.00;10414371;28;20065;-62
2024/01/05 10:09:52;;;;;;;1999.90;999.90;;;;;;;6.53;100.00;99515.06;10415287;28;20061;-61
2024/01/05 10:15:04;;;;;;;1999.90;999.90;;;;;;;6.64;100.00;99516.06;10414416;28;20049;-61
2024/01/05 10:20:14;;;;;;;1999.90;999.90;;;;;;;6.57;100.00;99499.13;10414560;28;20054;-62
2024/01/05 10:25:21;;;;;;;1999.90;999.90;;;;;;;6.51;100.00;99507.34;10414955;28;20064;-62
2024/01/05 10:30:30;;;;;;;1999.90;999.90;;;;;;;6.28;100.00;99504.34;10413909;28;20045;-62
2024/01/05 10:35:34;;;;;;;1999.90;999.90;;;;;;;6.55;100.00;99501.00;10414813;28;20054;-62
2024/01/05 10:40:39;;;;;;;1999.90;999.90;;;;;;;6.51;100.00;99492.56;10415128;28;20084;-62
2024/01/05 10:45:44;;;;;;;1999.90;999.90;;;;;;;6.72;100.00;99501.75;10413530;28;20456;-62
2024/01/05 10:50:48;;;;;;;1999.90;999.90;;;;;;;6.78;100.00;99504.78;10414717;28;20073;-62
2024/01/05 10:55:50;;;;;;;1999.90;999.90;;;;;;;6.89;100.00;99501.50;10413280;28;20066;-62
2024/01/05 11:00:57;;;;;;;1999.90;999.90;;;;;;;6.76;100.00;99498.00;10414478;28;20046;-62
2024/01/05 11:06:00;;;;;;;1999.90;999.90;;;;;;;6.76;100.00;99500.59;10397876;28;20050;-62
2024/01/05 11:11:14;;;;;;;1999.90;999.90;;;;;;;6.80;100.00;99512.50;10413291;28;20065;-61
2024/01/05 11:16:35;;;;;;;1999.90;999.90;;;;;;;6.75;100.00;99493.75;10416309;28;20064;-62
2024/01/05 11:21:47;;;;;;;1999.90;999.90;;;;;;;6.87;100.00;99499.00;10421398;28;20588;-62
2024/01/05 11:26:50;;;;;;;1999.90;999.90;;;;;;;6.87;100.00;99509.41;10420288;28;20049;-62
2024/01/05 11:31:52;;;;;;;1999.90;999.90;;;;;;;6.79;100.00;99493.47;10421113;28;20099;-62
2024/01/05 11:36:55;;;;;;;1999.90;999.90;;;;;;;6.72;100.00;99493.94;10421166;28;20056;-62
2024/01/05 11:41:58;;;;;;;1999.90;999.90;;;;;;;6.80;100.00;99482.13;10419539;28;20542;-62
2024/01/05 11:47:01;;;;;;;1999.90;999.90;;;;;;;6.93;100.00;99481.38;10419415;28;20080;-62
2024/01/05 11:52:04;;;;;;;1999.90;999.90;;;;;;;7.19;100.00;99471.88;10420484;28;20053;-62
2024/01/05 11:57:08;;;;;;;1999.90;999.90;;;;;;;6.85;100.00;99468.81;10420461;28;20055;-62
2024/01/05 12:02:17;;;;;;;1999.90;999.90;;;;;;;7.06;100.00;99471.81;10420002;28;20046;-62
2024/01/05 12:07:20;;;;;;;1999.90;999.90;;;;;;;6.93;100.00;99476.97;10420037;28;20046;-62
2024/01/05 12:12:24;;;;;;;1999.90;999.90;;;;;;;6.90;100.00;99474.56;10419795;28;20049;-62
2024/01/05 12:17:27;;;;;;;1999.90;999.90;;;;;;;7.01;100.00;99468.69;10419434;28;20116;-62
2024/01/05 12:22:29;;;;;;;1999.90;999.90;;;;;;;7.05;100.00;99467.56;10419677;28;20507;-62
2024/01/05 12:27:38;;;;;;;1999.90;999.90;;;;;;;6.91;100.00;99465.00;10418945;28;20429;-61
2024/01/05 12:32:41;;;;;;;1999.90;999.90;;;;;;;6.88;100.00;99463.44;10419210;28;20049;-62
2024/01/05 12:37:53;;;;;;;1999.90;999.90;;;;;;;6.69;100.00;99464.59;10418569;28;20046;-62
2024/01/05 12:42:56;;;;;;;1999.90;999.90;;;;;;;6.79;100.00;99457.06;10417459;28;20053;-62
2024/01/05 12:48:10;;;;;;;1999.90;999.90;;;;;;;6.76;100.00;99465.03;10418366;28;20049;-61
2024/01/05 12:53:20;;;;;;;1999.90;999.90;;;;;;;6.74;100.00;99455.66;10400616;28;20437;-62
2024/01/05 12:58:22;;;;;;;1999.90;999.90;;;;;;;6.73;100.00;99474.81;10418303;28;20536;-62
2024/01/05 13:03:27;;;;;;;1999.90;999.90;;;;;;;6.83;100.00;99473.31;10416473;28;20049;-62
2024/01/05 13:08:30;;;;;;;1999.90;999.90;;;;;;;7.01;100.00;99464.31;10416596;28;20106;-62
2024/01/05 13:13:33;;;;;;;1999.90;999.90;;;;;;;6.97;100.00;99462.00;10417186;28;20059;-61
2024/01/05 13:18:36;;;;;;;1999.90;999.90;;;;;;;6.98;100.00;99468.91;10416547;28;20049;-61
2024/01/05 13:23:43;;;;;;;1999.90;999.90;;;;;;;6.87;100.00;99475.59;10416934;28;20088;-62
2024/01/05 13:28:46;;;;;;;1999.90;999.90;;;;;;;6.76;100.00;99474.59;10416437;28;20472;-61
2024/01/05 13:33:49;;;;;;;1999.90;999.90;;;;;;;6.96;100.00;99475.94;10415995;28;20059;-62
2024/01/05 13:38:52;;;;;;;1999.90;999.90;;;;;;;6.93;100.00;99479.59;10415819;28;20049;-62
2024/01/05 13:43:55;;;;;;;1999.90;999.90;;;;;;;6.83;100.00;99468.91;10416349;28;20081;-62
2024/01/05 13:48:57;;;;;;;1999.90;999.90;;;;;;;6.78;100.00;99486.59;10415957;28;20045;-62
2024/01/05 13:53:59;;;;;;;1999.90;999.90;;;;;;;6.86;100.00;99479.13;10416115;28;20084;-62
2024/01/05 13:59:02;;;;;;;1999.90;999.90;;;;;;;6.99;100.00;99488.75;10415726;28;20057;-62
2024/01/05 14:04:04;;;;;;;1999.90;999.90;;;;;;;6.75;100.00;99501.56;10414201;28;20128;-62
2024/01/05 14:09:07;;;;;;;1999.90;999.90;;;;;;;6.68;100.00;99504.53;10415090;28;20416;-62
2024/01/05 14:14:09;;;;;;;1999.90;999.90;;;;;;;6.92;100.00;99503.09;10415286;28;20049;-62
2024/01/05 14:19:11;;;;;;;1999.90;999.90;;;;;;;6.84;100.00;99513.97;10415278;28;20047;-62
2024/01/05 14:24:14;;;;;;;1999.90;999.90;;;;;;;6.78;100.00;99525.59;10413931;28;20045;-62
2024/01/05 14:29:17;;;;;;;1999.90;999.90;;;;;;;6.68;100.00;99522.72;10415439;28;20080;-62
2024/01/05 14:34:19;;;;;;;1999.90;999.90;;;;;;;6.84;100.00;99530.44;10414878;28;20132;-63
2024/01/05 14:39:22;;;;;;;1999.90;999.90;;;;;;;6.94;100.00;99535.88;10413601;28;20081;-62
2024/01/05 14:44:25;;;;;;;1999.90;999.90;;;;;;;6.87;100.00;99521.59;10414999;28;20092;-62
2024/01/05 14:49:28;;;;;;;1999.90;999.90;;;;;;;6.74;100.00;99536.28;10414613;28;20048;-62
2024/01/05 14:54:30;;;;;;;1999.90;999.90;;;;;;;6.84;100.00;99540.84;10421915;28;20417;-62
2024/01/05 14:59:33;;;;;;;1999.90;999.90;;;;;;;6.86;100.00;99557.19;10421169;28;20103;-62
2024/01/05 15:04:35;;;;;;;1999.90;999.90;;;;;;;6.92;100.00;99563.78;10421131;28;20128;-62
2024/01/05 15:09:38;;;;;;;1999.90;999.90;;;;;;;6.96;100.00;99570.47;10420681;28;20053;-62
2024/01/05 15:14:42;;;;;;;1999.90;999.90;;;;;;;6.92;100.00;99594.16;10420757;28;20049;-62
2024/01/05 15:19:46;;;;;;;1999.90;999.90;;;;;;;6.73;100.00;99595.28;10421905;28;20049;-62
2024/01/05 15:24:49;;;;;;;1999.90;999.90;;;;;;;7.05;100.00;99601.13;10421541;28;20053;-62
2024/01/05 15:29:51;;;;;;;1999.90;999.90;;;;;;;7.02;100.00;99603.09;10389928;28;20045;-64
2024/01/05 15:34:54;;;;;;;1999.90;999.90;;;;;;;6.87;100.00;99597.88;10381700;28;20049;-64
2024/01/05 15:39:56;;;;;;;1999.90;999.90;;;;;;;6.77;100.00;99614.97;10383019;28;20046;-62
2024/01/05 15:44:59;;;;;;;1999.90;999.90;;;;;;;6.96;100.00;99608.66;10382961;28;20050;-63
2024/01/05 15:50:02;;;;;;;1999.90;999.90;;;;;;;6.94;100.00;99623.53;10367177;28;20138;-63
2024/01/05 15:55:05;;;;;;;1999.90;999.90;;;;;;;6.79;100.00;99636.56;10361777;28;20060;-63
2024/01/05 16:00:09;;;;;;;1999.90;999.90;;;;;;;6.99;100.00;99640.56;10374767;28;20429;-63
2024/01/05 16:05:12;;;;;;;1999.90;999.90;;;;;;;6.92;100.00;99638.41;10379100;28;20489;-63
2024/01/05 16:10:14;;;;;;;1999.90;999.90;;;;;;;6.69;100.00;99646.66;10378149;28;20125;-63
2024/01/05 16:15:20;;;;;;;1999.90;999.90;;;;;;;6.93;100.00;99653.94;10402781;28;20148;-63
2024/01/05 16:20:22;;;;;;;1999.90;999.90;;;;;;;6.91;100.00;99662.75;10379795;28;20057;-63
2024/01/05 16:25:24;;;;;;;1999.90;999.90;;;;;;;6.80;100.00;99676.41;10407252;23;20161;-63
2024/01/05 16:30:28;;;;;;;1999.90;999.90;;;;;;;6.81;100.00;99691.09;10413774;28;20046;-63
2024/01/05 16:35:31;;;;;;;1999.90;999.90;;;;;;;6.92;100.00;99704.28;10413498;28;20049;-62
2024/01/05 16:40:34;;;;;;;1999.90;999.90;;;;;;;7.07;100.00;99708.56;10418104;28;20037;-62
2024/01/05 16:45:37;;;;;;;1999.90;999.90;;;;;;;7.13;100.00;99707.38;10418689;28;20128;-63
2024/01/05 16:50:41;;;;;;;1999.90;999.90;;;;;;;7.06;100.00;99721.66;10418207;28;20049;-63
2024/01/05 16:55:44;;;;;;;1999.90;999.90;;;;;;;7.15;100.00;99730.72;10418183;28;20058;-63
2024/01/05 17:00:46;;;;;;;1999.90;999.90;;;;;;;6.99;100.00;99735.97;10417546;28;20045;-63
2024/01/05 17:05:49;;;;;;;1999.90;999.90;;;;;;;6.94;100.00;99751.88;10417593;28;20479;-63
2024/01/05 17:10:51;;;;;;;1999.90;999.90;;;;;;;6.94;100.00;99757.06;10417536;28;20045;-63
2024/01/05 17:15:53;;;;;;;1999.90;999.90;;;;;;;7.10;100.00;99764.00;10416359;28;20057;-63
2024/01/05 17:20:56;;;;;;;1999.90;999.90;;;;;;;7.17;100.00;99770.50;10415992;28;20128;-62
2024/01/05 17:26:00;;;;;;;1999.90;999.90;;;;;;;7.10;100.00;99766.59;10416596;28;20413;-63
2024/01/05 17:31:03;;;;;;;1999.90;999.90;;;;;;;6.98;100.00;99778.56;10416719;28;20453;-63
2024/01/05 17:36:06;;;;;;;1999.90;999.90;;;;;;;7.02;100.00;99788.69;10416539;28;20049;-63
2024/01/05 17:41:08;;;;;;;1999.90;999.90;;;;;;;6.97;100.00;99795.09;10416278;28;20049;-63
2024/01/05 17:46:11;;;;;;;1999.90;999.90;;;;;;;6.94;100.00;99803.09;10415142;28;20060;-63
2024/01/05 17:51:13;;;;;;;1999.90;999.90;;;;;;;6.97;100.00;99818.53;10416535;28;20084;-63
2024/01/05 17:56:22;;;;;;;1999.90;999.90;;;;;;;6.98;100.00;99830.63;10398525;28;20061;-63
2024/01/05 18:01:24;;;;;;;1999.90;999.90;;;;;;;6.92;100.00;99842.19;10416239;28;20128;-63
2024/01/05 18:06:27;;;;;;;1999.90;999.90;;;;;;;6.70;100.00;99848.63;10415746;28;20128;-63
2024/01/05 18:11:30;;;;;;;1999.90;999.90;;;;;;;6.62;100.00;99852.59;10415449;28;20052;-63
2024/01/05 18:16:35;;;;;;;1999.90;999.90;;;;;;;6.84;100.00;99852.22;10398548;28;20128;-63
2024/01/05 18:21:42;;;;;;;1999.90;999.90;;;;;;;6.88;100.00;99864.97;10414304;28;20129;-63
2024/01/05 18:26:44;;;;;;;1999.90;999.90;;;;;;;7.12;100.00;99874.88;10405605;28;20057;-63
2024/01/05 18:31:46;;;;;;;1999.90;999.90;;;;;;;7.15;100.00;99882.53;10427662;28;20049;-63
2024/01/05 18:36:49;;;;;;;1999.90;999.90;;;;;;;6.81;100.00;99884.47;10428604;28;20088;-63
2024/01/05 18:41:51;;;;;;;1999.90;999.90;;;;;;;6.80;100.00;99894.94;10428391;28;20485;-63
2024/01/05 18:46:54;;;;;;;1999.90;999.90;;;;;;;6.56;100.00;99900.59;10428524;28;20128;-63
2024/01/05 18:51:57;;;;;;;1999.90;999.90;;;;;;;6.62;100.00;99909.81;10428353;28;20045;-63
2024/01/05 18:56:59;;;;;;;1999.90;999.90;;;;;;;6.61;100.00;99910.75;10428181;28;20504;-63
2024/01/05 19:02:03;;;;;;;1999.90;999.90;;;;;;;6.61;100.00;99915.94;10428057;28;20095;-63
2024/01/05 19:07:06;;;;;;;1999.90;999.90;;;;;;;6.50;100.00;99917.34;10426862;28;20075;-63
2024/01/05 19:12:08;;;;;;;1999.90;999.90;;;;;;;6.52;100.00;99925.06;10427825;28;20370;-63
2024/01/05 19:17:11;;;;;;;1999.90;999.90;;;;;;;6.52;100.00;99940.69;10428366;28;20459;-62
2024/01/05 19:22:13;;;;;;;1999.90;999.90;;;;;;;6.70;100.00;99952.69;10427594;28;20049;-63
2024/01/05 19:27:16;;;;;;;1999.90;999.90;;;;;;;6.72;100.00;99949.16;10426472;28;20107;-63
2024/01/05 19:32:18;;;;;;;1999.90;999.90;;;;;;;6.66;100.00;99953.78;10426638;28;20042;-63
2024/01/05 19:37:20;;;;;;;1999.90;999.90;;;;;;;6.69;100.00;99960.56;10423957;28;20157;-64
2024/01/05 19:42:25;;;;;;;1999.90;999.90;;;;;;;6.84;100.00;99962.34;10421004;28;20112;-63
2024/01/05 19:47:28;;;;;;;1999.90;999.90;;;;;;;6.96;100.00;99979.03;10421477;28;20081;-63
2024/01/05 19:52:31;;;;;;;1999.90;999.90;;;;;;;6.80;100.00;99983.41;10420486;28;20060;-63
2024/01/05 19:57:34;;;;;;;1999.90;999.90;;;;;;;6.97;100.00;99990.28;10420461;28;20061;-63
2024/01/05 20:02:37;;;;;;;1999.90;999.90;;;;;;;6.97;100.00;99998.91;10420085;28;20045;-63
2024/01/05 20:07:39;;;;;;;1999.90;999.90;;;;;;;6.84;100.00;99998.78;10418799;28;20485;-62
2024/01/05 20:12:45;;;;;;;1999.90;999.90;;;;;;;6.94;100.00;100001.69;10419837;28;20071;-62
2024/01/05 20:17:49;;;;;;;1999.90;999.90;;;;;;;7.06;100.00;100008.84;10419882;28;20099;-63
2024/01/05 20:22:52;;;;;;;1999.90;999.90;;;;;;;7.05;100.00;100012.34;10418467;28;20049;-63
2024/01/05 20:27:55;;;;;;;1999.90;999.90;;;;;;;6.85;100.00;100026.47;10419232;28;20132;-63
2024/01/05 20:32:57;;;;;;;1999.90;999.90;;;;;;;7.04;100.00;100039.31;10419033;28;20081;-63
2024/01/05 20:38:00;;;;;;;1999.90;999.90;;;;;;;6.83;100.00;100046.53;10417626;28;20049;-64
2024/01/05 20:43:02;;;;;;;1999.90;999.90;;;;;;;7.20;100.00;100051.50;10418955;28;20491;-63
2024/01/05 20:48:05;;;;;;;1999.90;999.90;;;;;;;7.36;100.00;100054.06;10417201;28;20046;-63
2024/01/05 20:53:08;;;;;;;1999.90;999.90;;;;;;;7.00;100.00;100057.78;10418420;28;20053;-63
2024/01/05 20:58:13;;;;;;;1999.90;999.90;;;;;;;7.13;100.00;100066.63;10417977;28;20459;-63
2024/01/05 21:03:16;;;;;;;1999.90;999.90;;;;;;;7.04;100.00;100075.78;10416527;28;20400;-63
2024/01/05 21:08:19;;;;;;;1999.90;999.90;;;;;;;7.12;100.00;100080.53;10417100;28;20049;-63
2024/01/05 21:13:21;;;;;;;1999.90;999.90;;;;;;;7.10;100.00;100081.56;10417364;28;20404;-63
2024/01/05 21:18:24;;;;;;;1999.90;999.90;;;;;;;7.24;100.00;100085.06;10416088;28;20412;-63
2024/01/05 21:23:26;;;;;;;1999.90;999.90;;;;;;;7.41;100.00;100080.69;10416786;28;20081;-63
2024/01/05 21:28:28;;;;;;;1999.90;999.90;;;;;;;7.12;100.00;100082.31;10416772;28;20136;-62
2024/01/05 21:33:31;;;;;;;1999.90;999.90;;;;;;;7.24;100.00;100090.28;10415634;28;20050;-63
2024/01/05 21:38:35;;;;;;;1999.90;999.90;;;;;;;6.99;100.00;100097.75;10415275;28;20057;-63
2024/01/05 21:43:37;;;;;;;1999.90;999.90;;;;;;;7.05;100.00;100102.63;10416389;28;20084;-63
2024/01/05 21:48:40;;;;;;;1999.90;999.90;;;;;;;7.48;100.00;100102.03;10416084;28;20064;-63
2024/01/05 21:53:42;;;;;;;1999.90;999.90;;;;;;;7.39;100.00;100099.00;10415821;28;20133;-63
2024/01/05 21:58:45;;;;;;;1999.90;999.90;;;;;;;7.68;100.00;100112.16;10415547;28;20482;-63
2024/01/05 22:03:47;;;;;;;1999.90;999.90;;;;;;;7.21;100.00;100108.69;10415601;28;20049;-63
2024/01/05 22:08:49;;;;;;;1999.90;999.90;;;;;;;7.09;100.00;100122.34;10415691;28;20080;-63
2024/01/05 22:13:52;;;;;;;1999.90;999.90;;;;;;;7.33;100.00;100121.94;10414342;28;20045;-63